Douglas, OK (73733)

8:54 AM CDT en Abril 26, 2017 (GMT -0500)
Enid Woodring Municipal | | Change Station

Alt 1165 ft 36.38 °N, 97.79 °W | Updated 1 hour ago

Lluvia
Lluvia
45 ° F
Sensación térmica 37 ° F
N
16
Viento Variable Viento desde Norte
Gusts 21 mph

Hoy
Alta -- | Baja -- ° F
--% Posibilidad de precipitaciones
Ayer
Alta -- | Baja -- ° F
Precip. -- pul
Presión 29.65 pul
Visibilidad 10.0 Millas
Nubes Muy nublado 1400 ft
Nublado 2900 ft
Vientos helados 37 ° F
Punto de rocío 43 ° F
Humedad 93%
Precipitaciones 0.00 pul
Espesor de la nieve No disponible.
6:43 AM 8:14 PM
Luna nueva, 0% visible
METAR KWDG 261249Z 35014G18KT 10SM -RA BKN014 OVC029 07/06 A2965
Presión 29.65 pul
Visibilidad 10.0 Millas
Nubes Muy nublado 1400 ft
Nublado 2900 ft
Vientos helados 37 ° F
Punto de rocío 43 ° F
Humedad 93%
Precipitaciones 0.00 pul
Espesor de la nieve No disponible.
6:43 AM 8:14 PM
Luna nueva, 0% visible
METAR KWDG 261249Z 35014G18KT 10SM -RA BKN014 OVC029 07/06 A2965

Get Severe Weather Alerts

Thanks for signing up!

Be on the lookout for a verification email in your inbox.

You'll start receiving the daily forecast at 8 AM.

×

10-Day Weather Forecast

Almanac

Astronomía

Apr. 26, 2017 Salida Puesta
Hora real
Crepúsculo civil
Crepúsculo náutico
Crepúsculo astronómico
Luna
Horas de luz
Horas de luz
Tomorrow will be .
, % of the Moon is Illuminated

Extremos de hoy

Máximos del estado Bajos del estado

Community

WunderPhotos

WunderBlog® & News

Nearby

Calidad del aire

  Calidad del aire Índice AQ Contaminante
Not available.

Grosos de nieve

Estación Profundido Altura

Actividad de terremotos

Ciudad Distance Mag. Tiempo y dato
Magnitud mínima muestra es 2,5.

Temperaturas de aguas costeras

Lugar Temperatura

Stations

Estaciones meteorológicas cercanas

Ubicación de la estación Temp. Vientos helados Punto de rocío Humedad Viento Precip. Alt Actualizado Tipo
                   

Watches & Warnings

There are currently no watches in effect.